createdAt,value
2019-02-14T00:01:48.000Z,38.90
2019-02-14T00:06:53.682Z,29.87
2019-02-14T00:11:59.287Z,38.73
2019-02-14T00:17:04.977Z,24.23
2019-02-14T00:22:10.658Z,30.82
2019-02-14T00:27:16.862Z,32.78
2019-02-14T00:32:22.625Z,34.83
2019-02-14T00:37:28.299Z,36.83
2019-02-14T00:42:33.971Z,70.85
2019-02-14T00:47:39.638Z,48.38
2019-02-14T00:52:45.318Z,37.17
2019-02-14T00:57:51.112Z,33.05
2019-02-14T01:02:56.865Z,28.50
2019-02-14T01:08:03.186Z,30.23
2019-02-14T01:13:08.882Z,31.30
2019-02-14T01:18:14.491Z,27.70
2019-02-14T01:23:20.103Z,20.57
2019-02-14T01:28:25.793Z,24.12
2019-02-14T01:33:31.510Z,19.05
2019-02-14T01:38:37.116Z,19.65
2019-02-14T01:43:42.843Z,18.23
2019-02-14T01:48:48.501Z,19.07
2019-02-14T01:53:54.100Z,18.85
2019-02-14T01:58:59.838Z,15.98
2019-02-14T02:04:05.558Z,14.18
2019-02-14T02:09:11.274Z,16.90
2019-02-14T02:14:16.874Z,16.85
2019-02-14T02:19:22.532Z,18.65
2019-02-14T02:24:28.211Z,15.30
2019-02-14T02:29:33.861Z,17.35
2019-02-14T02:34:39.609Z,17.90
2019-02-14T02:39:45.268Z,17.52
2019-02-14T02:44:50.875Z,23.18
2019-02-14T02:49:56.527Z,18.75
2019-02-14T02:55:02.278Z,16.67
2019-02-14T03:00:14.113Z,23.25
2019-02-14T03:05:19.734Z,18.33
2019-02-14T03:10:25.400Z,15.72
2019-02-14T03:15:31.004Z,12.68
2019-02-14T03:20:36.668Z,15.48
2019-02-14T03:25:42.398Z,17.12
2019-02-14T03:30:48.096Z,14.60
2019-02-14T03:35:53.670Z,14.68
2019-02-14T03:40:59.900Z,16.12
2019-02-14T03:46:05.689Z,18.87
2019-02-14T03:51:11.290Z,16.62
2019-02-14T03:56:16.892Z,20.02
2019-02-14T04:01:22.559Z,15.40
2019-02-14T04:06:28.401Z,17.80
2019-02-14T04:11:33.998Z,17.15
2019-02-14T04:16:39.671Z,20.90
2019-02-14T04:21:45.276Z,18.32
2019-02-14T04:26:52.425Z,20.17
2019-02-14T04:31:58.193Z,14.63
2019-02-14T04:37:03.816Z,22.17
2019-02-14T04:42:09.549Z,15.20
2019-02-14T04:47:15.191Z,19.27
2019-02-14T04:52:20.869Z,20.17
2019-02-14T04:57:26.602Z,19.75
2019-02-14T05:02:32.196Z,19.90
2019-02-14T05:07:37.842Z,14.90
2019-02-14T05:12:43.536Z,18.27
2019-02-14T05:17:49.137Z,27.02
2019-02-14T05:22:54.874Z,17.92
2019-02-14T05:28:00.477Z,20.50
2019-02-14T05:33:06.226Z,17.60
2019-02-14T05:38:11.892Z,17.85
2019-02-14T05:43:17.488Z,19.85
2019-02-14T05:48:23.228Z,18.50
2019-02-14T05:53:28.835Z,22.25
2019-02-14T05:58:35.075Z,19.75
2019-02-14T06:03:40.768Z,18.57
2019-02-14T06:08:46.474Z,20.70
2019-02-14T06:13:52.284Z,21.75
2019-02-14T06:18:58.050Z,16.48
2019-02-14T06:24:03.926Z,19.25
2019-02-14T06:29:09.748Z,19.65
2019-02-14T06:34:15.545Z,24.82
2019-02-14T06:39:21.658Z,29.63
2019-02-14T06:44:27.507Z,23.02
2019-02-14T06:49:33.343Z,26.17
2019-02-14T06:54:39.012Z,22.80
2019-02-14T06:59:44.679Z,24.25
2019-02-14T07:04:50.374Z,31.00
2019-02-14T07:09:55.993Z,23.67
2019-02-14T07:15:01.620Z,27.32
2019-02-14T07:20:10.136Z,28.90
2019-02-14T07:25:15.944Z,54.93
2019-02-14T07:30:21.796Z,39.92
2019-02-14T07:35:27.559Z,34.08
2019-02-14T07:40:33.552Z,31.35
2019-02-14T07:45:41.269Z,23.50
2019-02-14T07:50:46.876Z,27.53
2019-02-14T07:55:52.493Z,27.25
2019-02-14T08:00:58.193Z,19.10
2019-02-14T08:06:03.817Z,30.37
2019-02-14T08:11:09.456Z,19.20
2019-02-14T08:16:15.124Z,24.40
2019-02-14T08:21:20.863Z,18.85
2019-02-14T08:26:26.662Z,18.37
2019-02-14T08:31:32.631Z,22.98
2019-02-14T08:36:38.463Z,19.27
2019-02-14T08:41:44.269Z,19.67
2019-02-14T08:46:51.240Z,18.75
2019-02-14T08:51:56.994Z,19.10
2019-02-14T08:57:03.215Z,19.45
2019-02-14T09:02:09.204Z,18.75
2019-02-14T09:07:15.059Z,24.57
2019-02-14T09:12:21.026Z,21.85
2019-02-14T09:17:26.806Z,18.48
2019-02-14T09:22:32.468Z,20.25
2019-02-14T09:27:38.196Z,21.70
2019-02-14T09:32:43.939Z,21.40
2019-02-14T09:37:49.554Z,22.50
2019-02-14T09:42:55.165Z,15.28
2019-02-14T09:48:00.791Z,17.32
2019-02-14T09:53:06.500Z,16.00
2019-02-14T09:58:12.249Z,14.65
2019-02-14T10:03:17.875Z,14.75
2019-02-14T10:08:23.507Z,13.62
2019-02-14T10:13:29.198Z,15.32
2019-02-14T10:18:34.804Z,13.10
2019-02-14T10:23:40.453Z,12.80
2019-02-14T10:28:46.183Z,19.12
2019-02-14T10:33:51.798Z,10.53
2019-02-14T10:38:57.585Z,12.25
2019-02-14T10:44:03.183Z,12.58
2019-02-14T10:49:08.853Z,13.83
2019-02-14T10:54:14.587Z,10.90
2019-02-14T10:59:20.207Z,11.40
2019-02-14T11:04:25.810Z,20.95
2019-02-14T11:09:31.477Z,12.37
2019-02-14T11:14:37.213Z,10.15
2019-02-14T11:19:42.816Z,10.85
2019-02-14T11:24:48.547Z,11.80
2019-02-14T11:29:54.415Z,14.68
2019-02-14T11:35:00.290Z,14.60
2019-02-14T11:40:06.621Z,13.93
2019-02-14T11:47:02.075Z,12.90
2019-02-14T11:52:08.115Z,10.05
2019-02-14T11:57:14.068Z,11.50
2019-02-14T12:02:20.127Z,14.60
2019-02-14T12:07:26.503Z,8.75
2019-02-14T12:12:32.610Z,11.85
2019-02-14T12:17:38.692Z,12.45
2019-02-14T12:22:47.065Z,9.88
2019-02-14T12:27:52.780Z,9.78
2019-02-14T12:32:58.897Z,10.85
2019-02-14T12:38:04.807Z,11.57
2019-02-14T12:43:10.914Z,11.75
2019-02-14T12:48:17.076Z,14.15
2019-02-14T12:53:23.473Z,11.55
2019-02-14T13:09:19.623Z,13.18
2019-02-14T13:14:18.095Z,10.38
2019-02-14T13:25:08.463Z,11.38
2019-02-14T13:30:16.798Z,11.33
2019-02-14T13:35:22.407Z,11.30
2019-02-14T13:40:28.229Z,11.57
2019-02-14T13:45:33.871Z,12.73
2019-02-14T13:50:39.489Z,12.07
2019-02-14T14:01:09.748Z,10.88
2019-02-14T14:06:34.245Z,9.38
2019-02-14T14:11:57.824Z,11.53
2019-02-14T14:38:07.473Z,12.90
2019-02-14T14:43:44.191Z,12.78
2019-02-14T14:55:11.279Z,10.72
2019-02-14T15:00:16.991Z,9.65
2019-02-14T15:05:22.594Z,11.22
2019-02-14T15:10:28.221Z,11.12
2019-02-14T15:15:33.835Z,7.78
2019-02-14T15:20:39.441Z,8.88
2019-02-14T15:25:45.057Z,9.78
2019-02-14T15:30:50.682Z,8.78
2019-02-14T15:35:56.287Z,10.25
2019-02-14T15:41:01.887Z,14.87
2019-02-14T15:46:07.502Z,16.20
2019-02-14T15:51:13.367Z,8.53
2019-02-14T15:56:18.985Z,11.05
2019-02-14T16:01:25.643Z,12.07
2019-02-14T16:06:31.249Z,13.95
2019-02-14T16:11:38.710Z,12.90
2019-02-14T16:16:45.387Z,10.70
2019-02-14T16:21:53.713Z,13.35
2019-02-14T16:27:00.793Z,13.62
2019-02-14T16:32:06.437Z,11.40
2019-02-14T16:37:12.237Z,10.25
2019-02-14T16:42:18.203Z,9.85
2019-02-14T16:47:23.798Z,10.08
2019-02-14T16:52:29.464Z,12.58
2019-02-14T16:57:35.097Z,9.83
2019-02-14T17:02:40.781Z,11.53
2019-02-14T17:07:46.391Z,12.03
2019-02-14T17:12:52.161Z,13.62
2019-02-14T17:17:57.894Z,12.43
2019-02-14T17:23:03.621Z,13.78
2019-02-14T17:28:09.293Z,16.52
2019-02-14T17:33:14.969Z,19.82
2019-02-14T17:38:20.586Z,32.60
2019-02-14T17:43:26.262Z,33.67
2019-02-14T17:48:31.884Z,23.07
2019-02-14T17:53:37.619Z,17.57
2019-02-14T17:58:43.239Z,21.05
2019-02-14T18:03:48.950Z,18.67
2019-02-14T18:08:54.549Z,16.17
2019-02-14T18:14:00.456Z,20.62
2019-02-14T18:19:08.646Z,19.00
2019-02-14T18:24:14.367Z,22.30
2019-02-14T18:29:19.985Z,21.05
2019-02-14T18:34:25.667Z,14.43
2019-02-14T18:39:31.357Z,16.80
2019-02-14T18:44:36.978Z,16.23
2019-02-14T18:49:42.689Z,16.32
2019-02-14T18:54:48.353Z,13.50
2019-02-14T18:59:53.990Z,17.35
2019-02-14T19:04:59.677Z,13.32
2019-02-14T19:10:05.499Z,18.23
2019-02-14T19:15:11.961Z,29.77
2019-02-14T19:20:17.591Z,24.98
2019-02-14T19:25:23.285Z,22.00
2019-02-14T19:30:28.928Z,15.50
2019-02-14T19:35:34.547Z,13.75
2019-02-14T19:40:40.225Z,10.85
2019-02-14T19:45:45.922Z,11.43
2019-02-14T19:50:51.537Z,14.25
2019-02-14T19:55:57.294Z,15.35
2019-02-14T20:01:03.098Z,15.35
2019-02-14T20:06:08.695Z,12.85
2019-02-14T20:11:14.306Z,14.60
2019-02-14T20:16:19.939Z,18.92
2019-02-14T20:21:25.553Z,14.18
2019-02-14T20:26:31.231Z,11.75
2019-02-14T20:31:37.108Z,16.55
2019-02-14T20:36:42.728Z,13.03
2019-02-14T20:41:48.335Z,12.68
2019-02-14T20:46:53.948Z,15.13
2019-02-14T20:51:59.557Z,14.53
2019-02-14T20:57:05.170Z,15.98
2019-02-14T21:02:10.884Z,10.45
2019-02-14T21:07:16.496Z,16.17
2019-02-14T21:12:22.116Z,13.75
2019-02-14T21:17:27.728Z,16.42
2019-02-14T21:22:33.406Z,13.85
2019-02-14T21:27:39.083Z,15.88
2019-02-14T21:32:44.734Z,17.23
2019-02-14T21:37:50.306Z,12.73
2019-02-14T21:42:55.984Z,13.65
2019-02-14T21:48:01.588Z,13.55
2019-02-14T21:53:07.297Z,10.08
2019-02-14T21:58:12.945Z,13.45
2019-02-14T22:03:18.557Z,15.90
2019-02-14T22:08:24.180Z,11.38
2019-02-14T22:13:29.785Z,11.95
2019-02-14T22:18:35.405Z,16.90
2019-02-14T22:23:41.066Z,16.20
2019-02-14T22:28:46.676Z,13.80
2019-02-14T22:33:52.281Z,18.37
2019-02-14T22:38:57.884Z,12.95
2019-02-14T22:44:03.637Z,12.50
2019-02-14T22:49:09.323Z,12.55
2019-02-14T22:54:14.935Z,14.07
2019-02-14T22:59:20.563Z,14.98
2019-02-14T23:04:26.192Z,11.75
2019-02-14T23:09:31.787Z,14.23
2019-02-14T23:14:37.564Z,11.75
2019-02-14T23:19:43.178Z,14.28
2019-02-14T23:24:48.927Z,13.65
2019-02-14T23:29:54.545Z,15.45
2019-02-14T23:35:00.256Z,11.22
2019-02-14T23:40:06.267Z,18.62
2019-02-14T23:45:12.080Z,15.10
2019-02-14T23:50:17.682Z,15.20
2019-02-14T23:55:23.372Z,11.80
